createdAt,value
2023-09-18T00:02:43.395Z,23.49
2023-09-18T00:05:46.534Z,23.55
2023-09-18T00:08:49.757Z,23.37
2023-09-18T00:11:52.984Z,23.57
2023-09-18T00:14:55.454Z,23.37
2023-09-18T00:17:57.932Z,22.85
2023-09-18T00:21:00.522Z,23.64
2023-09-18T00:24:04.238Z,23.34
2023-09-18T00:27:06.750Z,23.41
2023-09-18T00:30:09.143Z,23.43
2023-09-18T00:33:11.616Z,23.51
2023-09-18T00:36:14.025Z,23.37
2023-09-18T00:39:16.974Z,23.68
2023-09-18T00:42:19.410Z,23.51
2023-09-18T00:45:22.085Z,22.95
2023-09-18T00:48:24.709Z,22.63
2023-09-18T00:51:27.595Z,23.39
2023-09-18T00:54:30.105Z,23.34
2023-09-18T00:57:32.908Z,22.22
2023-09-18T01:00:35.345Z,22.82
2023-09-18T01:03:37.921Z,23.38
2023-09-18T01:06:40.236Z,23.01
2023-09-18T01:09:44.421Z,22.29
2023-09-18T01:12:46.834Z,22.07
2023-09-18T01:15:57.713Z,21.66
2023-09-18T01:19:00.265Z,22.13
2023-09-18T01:29:46.184Z,21.39
2023-09-18T01:33:00.505Z,21.40
2023-09-18T01:43:44.447Z,21.40
2023-09-18T01:47:58.586Z,21.60
2023-09-18T01:51:24.838Z,21.40
2023-09-18T01:54:37.841Z,21.14
2023-09-18T01:57:57.232Z,21.16
2023-09-18T02:01:15.561Z,20.89
2023-09-18T02:05:00.116Z,21.12
2023-09-18T02:08:12.200Z,21.10
2023-09-18T02:11:35.444Z,20.66
2023-09-18T02:14:58.147Z,21.09
2023-09-18T02:18:44.532Z,21.56
2023-09-18T02:21:57.677Z,21.34
2023-09-18T02:25:21.720Z,21.29
2023-09-18T02:28:33.260Z,21.25
2023-09-18T02:31:36.957Z,21.33
2023-09-18T02:34:39.358Z,21.48
2023-09-18T02:37:41.801Z,21.45
2023-09-18T02:40:44.285Z,21.12
2023-09-18T02:43:46.808Z,20.84
2023-09-18T02:46:49.346Z,21.53
2023-09-18T02:49:51.910Z,21.81
2023-09-18T02:52:54.383Z,22.29
2023-09-18T02:55:57.967Z,21.96
2023-09-18T02:59:00.523Z,22.42
2023-09-18T03:02:03.253Z,22.47
2023-09-18T03:05:05.779Z,21.19
2023-09-18T03:08:08.289Z,21.74
2023-09-18T03:11:14.393Z,22.36
2023-09-18T03:14:16.924Z,21.96
2023-09-18T03:17:19.509Z,22.10
2023-09-18T03:20:25.355Z,21.00
2023-09-18T03:23:27.843Z,21.47
2023-09-18T03:26:30.395Z,21.70
2023-09-18T03:29:32.960Z,21.71
2023-09-18T03:32:35.640Z,20.76
2023-09-18T03:35:48.907Z,21.21
2023-09-18T03:38:51.724Z,21.91
2023-09-18T03:41:54.491Z,21.95
2023-09-18T03:44:57.098Z,21.81
2023-09-18T03:47:59.610Z,21.85
2023-09-18T03:51:02.106Z,21.48
2023-09-18T03:54:06.549Z,21.06
2023-09-18T03:57:09.010Z,21.42
2023-09-18T04:00:12.508Z,21.79
2023-09-18T04:03:15.017Z,22.20
2023-09-18T04:06:17.505Z,21.90
2023-09-18T04:09:19.953Z,21.92
2023-09-18T04:12:22.510Z,21.85
2023-09-18T04:15:24.983Z,21.70
2023-09-18T04:18:27.430Z,21.84
2023-09-18T04:21:30.858Z,21.43
2023-09-18T04:24:33.447Z,21.27
2023-09-18T04:27:35.994Z,21.60
2023-09-18T04:30:38.512Z,21.74
2023-09-18T04:33:41.384Z,21.58
2023-09-18T04:36:45.135Z,21.60
2023-09-18T04:39:47.621Z,21.68
2023-09-18T04:42:50.068Z,21.46
2023-09-18T04:45:52.582Z,21.53
2023-09-18T04:48:55.421Z,20.83
2023-09-18T04:51:58.036Z,20.65
2023-09-18T04:55:00.534Z,21.76
2023-09-18T04:58:03.093Z,21.64
2023-09-18T05:01:08.383Z,21.38
2023-09-18T05:04:10.760Z,21.25
2023-09-18T05:07:13.221Z,21.52
2023-09-18T05:10:15.550Z,21.46
2023-09-18T05:13:17.759Z,21.22
2023-09-18T05:16:20.077Z,21.72
2023-09-18T05:19:22.814Z,22.58
2023-09-18T05:22:25.016Z,22.49
2023-09-18T05:25:39.593Z,23.13
2023-09-18T05:28:41.794Z,23.20
2023-09-18T05:31:44.395Z,23.98
2023-09-18T05:34:46.799Z,24.19
2023-09-18T05:37:48.986Z,23.84
2023-09-18T05:40:54.692Z,24.84
2023-09-18T05:43:58.046Z,25.03
2023-09-18T05:47:00.416Z,25.20
2023-09-18T05:50:07.864Z,25.10
2023-09-18T05:53:13.799Z,25.56
2023-09-18T05:56:18.456Z,25.20
2023-09-18T05:59:21.597Z,25.32
2023-09-18T06:02:24.608Z,25.19
2023-09-18T06:05:27.106Z,25.70
2023-09-18T06:08:31.451Z,25.52
2023-09-18T06:11:33.824Z,26.08
2023-09-18T06:14:36.379Z,26.00
2023-09-18T06:17:43.545Z,26.13
2023-09-18T06:20:46.353Z,27.14
2023-09-18T06:23:48.845Z,26.38
2023-09-18T06:26:52.545Z,26.03
2023-09-18T06:29:54.951Z,27.31
2023-09-18T06:32:57.325Z,25.17
2023-09-18T06:36:02.835Z,27.23
2023-09-18T06:39:07.122Z,28.02
2023-09-18T06:42:10.855Z,27.63
2023-09-18T06:45:16.113Z,27.08
2023-09-18T06:48:18.605Z,28.62
2023-09-18T06:51:30.226Z,28.25
2023-09-18T06:54:49.228Z,28.49
2023-09-18T06:57:54.808Z,29.44
2023-09-18T07:00:58.874Z,29.76
2023-09-18T07:04:01.645Z,29.34
2023-09-18T07:07:04.574Z,29.92
2023-09-18T07:10:14.188Z,29.20
2023-09-18T07:13:25.244Z,29.80
2023-09-18T07:16:34.596Z,29.93
2023-09-18T07:19:37.056Z,29.93
2023-09-18T07:22:39.673Z,30.03
2023-09-18T07:25:44.733Z,27.62
2023-09-18T07:28:47.560Z,29.22
2023-09-18T07:31:49.907Z,29.69
2023-09-18T07:34:52.447Z,30.99
2023-09-18T07:37:55.306Z,29.29
2023-09-18T07:40:58.076Z,29.41
2023-09-18T07:44:01.050Z,31.10
2023-09-18T07:47:03.717Z,31.74
2023-09-18T07:50:10.438Z,31.53
2023-09-18T07:53:15.311Z,31.30
2023-09-18T07:56:19.934Z,32.15
2023-09-18T07:59:22.157Z,31.90
2023-09-18T08:02:24.517Z,30.53
2023-09-18T08:05:29.501Z,31.37
2023-09-18T08:08:34.029Z,30.65
2023-09-18T08:11:37.547Z,27.54
2023-09-18T08:14:40.230Z,28.39
2023-09-18T08:17:43.761Z,27.73
2023-09-18T08:20:46.492Z,27.98
2023-09-18T08:23:48.685Z,28.35
2023-09-18T08:26:51.452Z,28.88
2023-09-18T08:29:53.764Z,28.73
2023-09-18T08:32:56.142Z,30.23
2023-09-18T08:35:58.950Z,30.83
2023-09-18T08:39:01.277Z,31.30
2023-09-18T08:42:08.843Z,31.77
2023-09-18T08:45:12.410Z,32.06
2023-09-18T08:48:15.012Z,33.05
2023-09-18T08:51:17.410Z,32.15
2023-09-18T08:54:20.011Z,32.79
2023-09-18T08:57:22.993Z,33.22
2023-09-18T09:00:25.435Z,34.12
2023-09-18T09:03:28.679Z,33.53
2023-09-18T09:06:31.356Z,34.74
2023-09-18T09:09:33.721Z,34.32
2023-09-18T09:12:58.912Z,35.05
2023-09-18T09:16:01.686Z,33.86
2023-09-18T09:19:04.314Z,33.61
2023-09-18T09:22:07.358Z,35.08
2023-09-18T09:25:32.675Z,33.40
2023-09-18T09:28:35.132Z,35.06
2023-09-18T09:31:38.933Z,36.13
2023-09-18T09:34:42.663Z,36.07
2023-09-18T09:37:44.998Z,34.14
2023-09-18T09:40:49.795Z,32.34
2023-09-18T09:43:52.822Z,32.41
2023-09-18T09:46:55.332Z,34.38
2023-09-18T09:49:57.761Z,34.80
2023-09-18T09:53:00.480Z,35.41
2023-09-18T09:56:02.767Z,35.51
2023-09-18T09:59:09.773Z,34.27
2023-09-18T10:02:16.144Z,34.88
2023-09-18T10:05:19.297Z,33.00
2023-09-18T10:08:27.845Z,35.78
2023-09-18T10:11:33.702Z,35.98
2023-09-18T10:14:51.052Z,37.08
2023-09-18T10:18:01.261Z,36.80
2023-09-18T10:21:35.560Z,37.00
2023-09-18T10:24:39.065Z,36.86
2023-09-18T10:27:42.256Z,36.59
2023-09-18T10:30:45.331Z,37.49
2023-09-18T10:33:49.945Z,36.89
2023-09-18T10:36:57.487Z,36.51
2023-09-18T10:40:00.604Z,35.85
2023-09-18T10:43:05.070Z,35.27
2023-09-18T10:46:07.711Z,34.18
2023-09-18T10:49:11.137Z,33.84
2023-09-18T10:52:17.375Z,32.60
2023-09-18T10:55:19.733Z,32.17
2023-09-18T10:58:26.697Z,32.25
2023-09-18T11:01:30.571Z,31.69
2023-09-18T11:04:33.042Z,32.02
2023-09-18T11:07:35.739Z,31.42
2023-09-18T11:10:38.914Z,30.75
2023-09-18T11:13:48.920Z,31.42
2023-09-18T11:16:51.733Z,31.18
2023-09-18T11:20:18.923Z,30.87
2023-09-18T11:23:35.834Z,30.94
2023-09-18T11:26:42.470Z,31.81
2023-09-18T11:29:47.833Z,31.98
2023-09-18T11:32:50.409Z,31.26
2023-09-18T11:35:54.082Z,32.01
2023-09-18T11:39:04.851Z,31.85
2023-09-18T11:42:12.463Z,32.29
2023-09-18T11:45:18.591Z,33.31
2023-09-18T11:48:21.705Z,32.18
2023-09-18T11:51:24.885Z,32.78
2023-09-18T11:54:29.196Z,32.54
2023-09-18T11:57:37.030Z,32.70
2023-09-18T12:00:47.126Z,32.25
2023-09-18T12:03:56.452Z,31.71
2023-09-18T12:07:03.392Z,30.94
2023-09-18T12:10:10.042Z,31.91
2023-09-18T12:13:13.093Z,31.59
2023-09-18T12:16:15.392Z,32.11
2023-09-18T12:19:19.835Z,31.99
2023-09-18T12:22:29.333Z,30.43
2023-09-18T12:25:31.816Z,31.59
2023-09-18T12:28:37.307Z,31.56
2023-09-18T12:31:40.021Z,31.00
2023-09-18T12:34:46.510Z,31.50
2023-09-18T12:38:06.950Z,31.39
2023-09-18T12:41:12.838Z,31.19
2023-09-18T12:44:20.561Z,30.08
2023-09-18T12:47:29.070Z,30.64
2023-09-18T12:50:33.130Z,31.15
2023-09-18T12:53:46.051Z,30.99
2023-09-18T12:56:48.357Z,31.18
2023-09-18T12:59:52.729Z,30.80
2023-09-18T13:02:58.122Z,31.35
2023-09-18T13:06:21.481Z,31.07
2023-09-18T13:09:24.762Z,30.72
2023-09-18T13:13:00.789Z,31.41
2023-09-18T13:16:06.611Z,32.03
2023-09-18T13:19:08.871Z,34.23
2023-09-18T13:22:11.274Z,34.58
2023-09-18T13:25:20.989Z,33.44
2023-09-18T13:28:24.333Z,32.48
2023-09-18T13:31:27.336Z,31.19
2023-09-18T13:34:31.177Z,30.90
2023-09-18T13:37:35.040Z,31.07
2023-09-18T13:40:37.432Z,31.17
2023-09-18T13:43:39.922Z,31.26
2023-09-18T13:46:42.530Z,31.07
2023-09-18T13:49:44.929Z,30.64
2023-09-18T13:52:47.159Z,30.83
2023-09-18T13:55:51.581Z,30.44
2023-09-18T13:58:54.002Z,30.49
2023-09-18T14:01:56.346Z,30.40
2023-09-18T14:04:58.610Z,30.29
2023-09-18T14:08:01.850Z,30.17
2023-09-18T14:11:05.776Z,29.97
2023-09-18T14:14:08.736Z,29.74
2023-09-18T14:17:11.976Z,29.89
2023-09-18T14:20:16.612Z,29.80
2023-09-18T14:23:18.825Z,30.10
2023-09-18T14:26:21.757Z,29.72
2023-09-18T14:29:24.285Z,29.34
2023-09-18T14:32:27.412Z,30.13
2023-09-18T14:35:29.763Z,30.34
2023-09-18T14:38:32.113Z,30.17
2023-09-18T14:41:34.714Z,30.26
2023-09-18T14:44:37.256Z,29.99
2023-09-18T14:47:40.454Z,29.80
2023-09-18T14:50:42.963Z,29.31
2023-09-18T14:53:45.731Z,29.82
2023-09-18T14:56:48.322Z,29.72
2023-09-18T14:59:50.723Z,29.88
2023-09-18T15:02:53.090Z,29.63
2023-09-18T15:05:56.672Z,29.38
2023-09-18T15:08:59.101Z,29.95
2023-09-18T15:12:01.379Z,30.12
2023-09-18T15:15:03.867Z,30.10
2023-09-18T15:18:12.502Z,30.02
2023-09-18T15:21:14.754Z,30.12
2023-09-18T15:24:17.259Z,29.96
2023-09-18T15:27:19.350Z,29.70
2023-09-18T15:30:21.571Z,29.70
2023-09-18T15:33:23.908Z,29.79
2023-09-18T15:36:26.528Z,29.65
2023-09-18T15:39:30.975Z,29.54
2023-09-18T15:42:33.506Z,29.58
2023-09-18T15:45:38.987Z,29.62
2023-09-18T15:48:41.180Z,29.58
2023-09-18T15:51:43.358Z,29.58
2023-09-18T15:54:45.517Z,29.54
2023-09-18T15:57:49.221Z,29.45
2023-09-18T16:01:55.124Z,29.32
2023-09-18T16:05:21.140Z,29.46
2023-09-18T16:08:30.543Z,29.51
2023-09-18T16:11:33.353Z,29.58
2023-09-18T16:14:36.219Z,29.60
2023-09-18T16:17:39.036Z,29.35
2023-09-18T16:20:41.638Z,29.20
2023-09-18T16:23:44.227Z,29.24
2023-09-18T16:26:47.643Z,29.22
2023-09-18T16:29:50.573Z,29.20
2023-09-18T16:33:01.601Z,29.28
2023-09-18T16:36:05.225Z,29.27
2023-09-18T16:39:07.774Z,29.12
2023-09-18T16:42:10.328Z,28.84
2023-09-18T16:45:12.829Z,28.83
2023-09-18T16:48:15.400Z,28.58
2023-09-18T16:51:17.974Z,28.53
2023-09-18T16:54:24.885Z,28.72
2023-09-18T16:57:27.448Z,28.69
2023-09-18T17:00:29.872Z,28.53
2023-09-18T17:03:32.702Z,28.57
2023-09-18T17:06:36.308Z,28.53
2023-09-18T17:09:39.292Z,28.40
2023-09-18T17:12:41.915Z,28.37
2023-09-18T17:15:44.403Z,28.30
2023-09-18T17:18:46.920Z,28.23
2023-09-18T17:21:49.337Z,28.04
2023-09-18T17:24:51.871Z,27.90
2023-09-18T17:27:54.226Z,28.05
2023-09-18T17:30:56.725Z,28.02
2023-09-18T17:34:02.016Z,28.15
2023-09-18T17:37:04.714Z,28.07
2023-09-18T17:40:08.115Z,28.06
2023-09-18T17:43:10.591Z,27.91
2023-09-18T17:46:13.113Z,28.09
2023-09-18T17:49:38.244Z,28.00
2023-09-18T17:52:42.114Z,27.98
2023-09-18T17:55:45.928Z,27.82
2023-09-18T17:58:48.401Z,27.66
2023-09-18T18:01:51.086Z,27.58
2023-09-18T18:04:53.760Z,27.61
2023-09-18T18:07:56.487Z,27.63
2023-09-18T18:10:58.872Z,27.55
2023-09-18T18:14:01.457Z,27.59
2023-09-18T18:17:03.890Z,27.44
2023-09-18T18:20:10.004Z,27.41
2023-09-18T18:23:12.570Z,27.33
2023-09-18T18:26:19.676Z,27.21
2023-09-18T18:29:22.270Z,27.17
2023-09-18T18:32:24.735Z,27.26
2023-09-18T18:35:27.179Z,27.22
2023-09-18T18:38:29.714Z,27.37
2023-09-18T18:41:32.480Z,27.36
2023-09-18T18:44:35.227Z,27.30
2023-09-18T18:47:37.686Z,26.97
2023-09-18T18:50:40.496Z,27.37
2023-09-18T18:53:43.093Z,27.25
2023-09-18T18:56:45.875Z,27.38
2023-09-18T18:59:48.762Z,27.02
2023-09-18T19:02:51.688Z,27.43
2023-09-18T19:05:54.126Z,27.13
2023-09-18T19:08:58.264Z,27.07
2023-09-18T19:12:00.746Z,27.10
2023-09-18T19:15:07.477Z,27.35
2023-09-18T19:18:10.116Z,27.20
2023-09-18T19:21:13.293Z,27.27
2023-09-18T19:24:15.864Z,27.09
2023-09-18T19:27:18.294Z,27.44
2023-09-18T19:30:20.770Z,27.44
2023-09-18T19:33:23.381Z,27.46
2023-09-18T19:36:25.866Z,27.43
2023-09-18T19:39:43.749Z,27.36
2023-09-18T19:42:46.802Z,27.31
2023-09-18T19:45:50.944Z,27.60
2023-09-18T19:48:53.498Z,27.21
2023-09-18T19:51:56.010Z,27.39
2023-09-18T19:54:58.405Z,27.18
2023-09-18T19:58:01.665Z,27.31
2023-09-18T20:01:05.515Z,27.36
2023-09-18T20:07:31.690Z,26.91
2023-09-18T20:10:34.291Z,26.66
2023-09-18T20:13:36.764Z,27.11
2023-09-18T20:16:39.180Z,26.82
2023-09-18T20:19:41.601Z,26.35
2023-09-18T20:22:44.405Z,26.31
2023-09-18T20:25:46.937Z,26.78
2023-09-18T20:28:49.749Z,26.77
2023-09-18T20:31:52.467Z,26.69
2023-09-18T20:34:55.427Z,26.75
2023-09-18T20:37:57.892Z,26.69
2023-09-18T20:41:00.874Z,26.56
2023-09-18T20:44:04.956Z,26.83
2023-09-18T20:47:07.509Z,26.57
2023-09-18T20:50:12.787Z,26.46
2023-09-18T20:53:15.402Z,26.42
2023-09-18T20:56:19.844Z,26.45
2023-09-18T20:59:22.246Z,26.10
2023-09-18T21:02:25.889Z,26.50
2023-09-18T21:05:28.794Z,26.04
2023-09-18T21:08:32.563Z,26.32
2023-09-18T21:11:35.056Z,26.28
2023-09-18T21:14:37.575Z,26.33
2023-09-18T21:17:40.052Z,26.18
2023-09-18T21:20:42.596Z,26.04
2023-09-18T21:23:45.891Z,26.13
2023-09-18T21:26:48.836Z,26.19
2023-09-18T21:29:52.201Z,25.81
2023-09-18T21:32:54.837Z,25.78
2023-09-18T21:35:57.263Z,26.24
2023-09-18T21:38:59.527Z,25.93
2023-09-18T21:42:02.340Z,25.47
2023-09-18T21:45:05.175Z,25.17
2023-09-18T21:48:07.739Z,25.92
2023-09-18T21:51:12.952Z,26.13
2023-09-18T21:54:15.424Z,25.72
2023-09-18T21:57:17.838Z,25.81
2023-09-18T22:00:23.775Z,26.25
2023-09-18T22:03:26.287Z,26.25
2023-09-18T22:06:29.676Z,25.87
2023-09-18T22:09:32.148Z,26.18
2023-09-18T22:12:34.390Z,25.48
2023-09-18T22:15:36.755Z,25.72
2023-09-18T22:18:40.077Z,24.93
2023-09-18T22:21:43.630Z,25.29
2023-09-18T22:24:47.283Z,25.66
2023-09-18T22:27:49.692Z,25.52
2023-09-18T22:30:53.942Z,24.91
2023-09-18T22:33:56.576Z,25.63
2023-09-18T22:36:58.996Z,25.26
2023-09-18T22:40:08.450Z,24.91
2023-09-18T22:43:48.215Z,25.43
2023-09-18T22:47:36.762Z,25.40
2023-09-18T22:51:16.728Z,25.80
2023-09-18T22:54:19.550Z,25.27
2023-09-18T22:57:23.618Z,24.85
2023-09-18T23:00:30.259Z,24.80
2023-09-18T23:03:33.600Z,24.95
2023-09-18T23:06:35.989Z,25.54
2023-09-18T23:09:38.210Z,25.39
2023-09-18T23:12:40.594Z,25.48
2023-09-18T23:15:44.432Z,25.15
2023-09-18T23:18:46.952Z,24.97
2023-09-18T23:21:49.450Z,24.90
2023-09-18T23:25:05.492Z,24.77
2023-09-18T23:28:26.593Z,24.84
2023-09-18T23:31:41.146Z,24.83
2023-09-18T23:38:37.052Z,25.43
2023-09-18T23:41:54.236Z,25.40
2023-09-18T23:45:21.500Z,24.96
2023-09-18T23:48:48.601Z,25.59
2023-09-18T23:52:16.415Z,24.97
2023-09-18T23:55:19.111Z,24.60
2023-09-18T23:58:21.916Z,25.32
